This is the latest recevied weather packets stored in our database for station/object OK1TBF-6. If no packets are shown the sender has not sent any weather packets the latest 10 day(s).
| Time | Temp. | Humidity | Pressure | Rain* | Wind** | Luminosity | Snow |
|---|---|---|---|---|---|---|---|
| 1777682407 | 10.56° C | 61% | 1016.3 hPa | 0 mm | - | - | - |
| 1777681507 | 11.67° C | 57% | 1016.4 hPa | 0 mm | - | - | - |
| 1777680009 | 11.67° C | 56% | 1016.3 hPa | 0 mm | - | - | - |
| 1777679408 | 12.22° C | 56% | 1016.5 hPa | 0 mm | - | - | - |
| 1777679109 | 12.22° C | 56% | 1016.3 hPa | 0 mm | - | - | - |
| 1777677309 | 13.33° C | 52% | 1016.6 hPa | 0 mm | - | - | - |
| 1777673709 | 12.22° C | 57% | 1016.9 hPa | 0 mm | - | - | - |
| 1777673409 | 12.78° C | 53% | 1016.9 hPa | 0 mm | - | - | - |
| 1777673110 | 13.89° C | 51% | 1016.7 hPa | 0 mm | - | - | - |
| 1777671611 | 15° C | 47% | 1016.9 hPa | 0 mm | - | - | - |
| 1777668910 | 15° C | 46% | 1016.8 hPa | 0 mm | - | - | - |
| 1777668611 | 15° C | 45% | 1016.8 hPa | 0 mm | - | - | - |
| 1777668311 | 15.56° C | 45% | 1016.8 hPa | 0 mm | - | - | - |
| 1777667411 | 15.56° C | 44% | 1016.8 hPa | 0 mm | - | - | - |
| 1777667111 | 15.56° C | 45% | 1016.8 hPa | 0 mm | - | - | - |
| 1777665312 | 15° C | 46% | 1016.8 hPa | 0 mm | - | - | - |
| 1777664742 | 15.56° C | 45% | 1016.6 hPa | 0 mm | - | - | - |
| 1777664143 | 15.56° C | 44% | 1016.6 hPa | 0 mm | - | - | - |
| 1777662343 | 16.11° C | 43% | 1016.6 hPa | 0 mm | - | - | - |
| 1777660843 | 16.11° C | 43% | 1016.6 hPa | 0 mm | - | - | - |
| 1777659941 | 16.11° C | 43% | 1016.4 hPa | 0 mm | - | - | - |
| 1777658442 | 17.22° C | 42% | 1016.2 hPa | 0 mm | - | - | - |
| 1777657842 | 17.22° C | 42% | 1016.1 hPa | 0 mm | - | - | - |
| 1777656341 | 17.78° C | 40% | 1015.8 hPa | 0 mm | - | - | - |
| 1777653342 | 18.89° C | 39% | 1015.9 hPa | 0 mm | - | - | - |
* Rain latest hour (hover to see other rain measurements)
** Current wind speed in m/s (hover to see current wind gust speed)